METAR AND TAF INFORMATION
METAR FOR EPSC
ADDS - METARS form results

(0809 UTC 22 February 2019)
Data provider http://aviationweather.gov/metar/data/
 
METAR text: EPSC 220800Z 04008KT 350V090 CAVOK 00/M04 Q1037
Conditions at: EPSC (SZCZECIN/GOLENIO, PL) observed 0800 UTC 22 February 2019
Temperature: 0.0°C (32°F)
Dewpoint: -4.0°C (25°F) [RH = 74%]
Pressure (altimeter): 30.62 inches Hg (1037.0 mb)
Winds: from the NE (40 degrees) at 9 MPH (8 knots; 4.1 m/s)
Visibility: 6 or more miles (10+ km)
Ceiling: ceiling and visibility are OK
Clouds: unknown
Weather: no significant weather observed at this time

METAR text: EPSC 220730Z 04005KT 360V090 CAVOK M00/M04 Q1037
Conditions at: EPSC (SZCZECIN/GOLENIO, PL) observed 0730 UTC 22 February 2019
Temperature: 0.0°C (32°F)
Dewpoint: -4.0°C (25°F) [RH = 74%]
Pressure (altimeter): 30.62 inches Hg (1037.0 mb)
Winds: from the NE (40 degrees) at 6 MPH (5 knots; 2.6 m/s)
Visibility: 6 or more miles (10+ km)
Ceiling: ceiling and visibility are OK
Clouds: unknown
Weather: no significant weather observed at this time

Forecast for: EPSC (SZCZECIN/GOLENIO, PL)
Text: TAF EPSC 220530Z 2206/2306 06012KT CAVOK
Forecast period: 0600 to 2100 UTC 22 February 2019
Forecast type: FROM: standard forecast or significant change
Winds: from the ENE (60 degrees) at 14 MPH (12 knots; 6.2 m/s)
Visibility: 6 or more miles 10+ km)
Ceiling: unknown
Clouds: missing
Weather: NSW  (no significant weather)
Text: BECMG 2221/2223 16004KT
Forecast period: 2100 UTC 22 February 2019 to 0600 UTC 23 February 2019
Forecast type: BECOMING: Conditions expected to become as follows by 2300 UTC 22 February 2019
Winds: from the SSE (160 degrees) at 5 MPH (4 knots; 2.1 m/s)
Visibility: 6 or more miles 10+ km)
Ceiling: unknown
Clouds: missing
Weather: NSW  (no significant weather)

 AIRPORT MAP

 RUNWAY INFORMATION
Runway 13 Runway length 8202 ft Runway width 197 ft
Runway elevation 118 ft Runway displaced threshold 0 ft Runway heading 131
Runway 31 Runway length 8202 ft Runway width 197 ft
Runway elevation 154 ft Runway displaced threshold 0 ft Runway heading 311

 AIRPORT FREQUENCIES
Type TWR Name SZCZECIN T Frequency 118.5 MHZ

 AIRPORT NEAR NAVIGATION AIDS
Type NDB Name Szczecin Frequency 397 KHZ



Powered by Virtual Airlines Manager [v2.6.2]